Time;durP1;ratioP1;P1;durP2;ratioP2;P2;SDS_P1;SDS_P2;PMS_P1;PMS_P2;Temp;Humidity;BMP_temperature;BMP_pressure;BME280_temperature;BME280_humidity;BME280_pressure;Samples;Min_cycle;Max_cycle;Signal;HPM_P1;HPM_P2
2022/08/07 00:00:51;;;;;;;;;;;14.60;62.10;;;;;;5107355;28;19915;-80
2022/08/07 00:03:17;;;;;;;;;;;14.50;62.80;;;;;;5109979;28;19919;-80
2022/08/07 00:05:43;;;;;;;;;;;14.60;63.00;;;;;;5094086;28;19912;-79
2022/08/07 00:08:09;;;;;;;;;;;14.50;62.90;;;;;;5102342;28;19916;-79
2022/08/07 00:10:35;;;;;;;;;;;14.50;63.70;;;;;;5092174;28;19920;-83
2022/08/07 00:13:03;;;;;;;;;;;14.50;63.70;;;;;;5092945;28;20419;-79
2022/08/07 00:15:30;;;;;;;;;;;14.40;63.90;;;;;;5107937;28;19919;-79
2022/08/07 00:17:56;;;;;;;;;;;14.50;64.20;;;;;;5110158;28;20086;-80
2022/08/07 00:20:22;;;;;;;;;;;14.50;64.00;;;;;;5104392;28;20273;-79
2022/08/07 00:22:48;;;;;;;;;;;14.50;64.00;;;;;;5093358;28;19915;-80
2022/08/07 00:25:14;;;;;;;;;;;14.40;64.30;;;;;;5089432;28;20361;-79
2022/08/07 00:27:40;;;;;;;;;;;14.40;64.30;;;;;;5106394;28;19916;-80
2022/08/07 00:30:06;;;;;;;;;;;14.50;64.00;;;;;;5107195;28;19916;-79
2022/08/07 00:32:32;;;;;;;;;;;14.60;63.80;;;;;;5077000;28;19919;-79
2022/08/07 00:34:58;;;;;;;;;;;14.60;63.70;;;;;;5110847;28;20295;-80
2022/08/07 00:37:25;;;;;;;;;;;14.70;63.70;;;;;;5108985;28;19911;-79
2022/08/07 00:39:53;;;;;;;;;;;14.60;63.60;;;;;;5108925;28;19916;-80
2022/08/07 00:42:19;;;;;;;;;;;14.60;63.90;;;;;;5112397;28;19916;-80
2022/08/07 00:44:45;;;;;;;;;;;14.60;64.20;;;;;;5092620;28;19912;-80
2022/08/07 00:47:11;;;;;;;;;;;14.50;64.50;;;;;;5104594;28;20257;-80
2022/08/07 00:49:37;;;;;;;;;;;14.50;64.60;;;;;;5111112;28;19920;-82
2022/08/07 00:52:04;;;;;;;;;;;14.40;65.10;;;;;;5093634;28;19912;-79
2022/08/07 00:54:31;;;;;;;;;;;14.40;65.80;;;;;;5111262;28;19912;-80
2022/08/07 00:56:57;;;;;;;;;;;14.30;66.10;;;;;;5103720;28;19908;-80
2022/08/07 00:59:23;;;;;;;;;;;14.30;66.30;;;;;;5111767;28;19912;-81
2022/08/07 01:01:49;;;;;;;;;;;14.20;66.50;;;;;;5112425;28;19919;-80
2022/08/07 01:04:16;;;;;;;;;;;14.20;66.60;;;;;;5094241;28;20262;-80
2022/08/07 01:06:43;;;;;;;;;;;14.10;67.00;;;;;;5117111;28;19911;-85
2022/08/07 01:09:09;;;;;;;;;;;14.00;67.90;;;;;;5132751;28;19920;-84
2022/08/07 01:11:36;;;;;;;;;;;14.00;68.60;;;;;;5114924;28;19918;-79
2022/08/07 01:14:02;;;;;;;;;;;14.00;68.30;;;;;;5097236;28;20387;-79
2022/08/07 01:16:29;;;;;;;;;;;13.90;69.40;;;;;;5097716;28;19919;-79
2022/08/07 01:18:55;;;;;;;;;;;13.80;69.60;;;;;;5115359;28;19919;-81
2022/08/07 01:21:23;;;;;;;;;;;13.80;70.10;;;;;;5090855;28;19916;-80
2022/08/07 01:23:53;;;;;;;;;;;13.70;70.80;;;;;;5090357;28;19923;-80
2022/08/07 01:26:20;;;;;;;;;;;13.60;71.20;;;;;;5096784;28;19920;-80
2022/08/07 01:28:48;;;;;;;;;;;13.50;72.70;;;;;;5089093;28;20322;-80
2022/08/07 01:31:26;;;;;;;;;;;13.50;72.70;;;;;;5088364;28;19923;-80
2022/08/07 01:33:53;;;;;;;;;;;13.50;73.10;;;;;;5096100;28;20272;-79
2022/08/07 01:36:19;;;;;;;;;;;13.50;73.80;;;;;;5076565;28;19916;-79
2022/08/07 01:38:46;;;;;;;;;;;13.40;74.10;;;;;;5096115;28;19915;-79
2022/08/07 01:41:24;;;;;;;;;;;13.50;74.20;;;;;;5094882;28;19911;-79
2022/08/07 01:43:50;;;;;;;;;;;13.60;74.60;;;;;;5078353;28;19920;-79
2022/08/07 01:46:18;;;;;;;;;;;13.60;74.20;;;;;;5096378;28;19912;-79
2022/08/07 01:48:45;;;;;;;;;;;13.70;74.00;;;;;;5096705;28;19923;-79
2022/08/07 01:51:20;;;;;;;;;;;13.80;74.50;;;;;;5094819;28;19923;-80
2022/08/07 01:53:48;;;;;;;;;;;13.80;74.00;;;;;;5079046;28;20254;-79
2022/08/07 01:56:24;;;;;;;;;;;13.70;74.40;;;;;;5096381;28;19985;-80
2022/08/07 01:58:58;;;;;;;;;;;13.60;75.30;;;;;;5104334;28;19920;-79
2022/08/07 02:01:28;;;;;;;;;;;13.60;75.50;;;;;;5086480;28;20372;-79
2022/08/07 02:03:59;;;;;;;;;;;13.60;76.00;;;;;;5108245;28;19915;-81
2022/08/07 02:06:29;;;;;;;;;;;13.60;76.40;;;;;;5089739;28;19919;-79
2022/08/07 02:08:59;;;;;;;;;;;13.60;76.60;;;;;;5107873;28;19931;-82
2022/08/07 02:11:26;;;;;;;;;;;13.50;77.30;;;;;;5085113;28;19915;-80
2022/08/07 02:13:54;;;;;;;;;;;13.40;77.50;;;;;;5091077;28;19919;-80
2022/08/07 02:16:22;;;;;;;;;;;13.30;79.00;;;;;;5091345;28;19908;-79
2022/08/07 02:18:48;;;;;;;;;;;13.30;79.20;;;;;;5094605;28;20241;-79
2022/08/07 02:21:15;;;;;;;;;;;13.20;79.90;;;;;;5104608;28;19912;-81
2022/08/07 02:23:42;;;;;;;;;;;13.20;80.70;;;;;;5101152;28;19911;-84
2022/08/07 02:26:09;;;;;;;;;;;13.20;82.20;;;;;;5088734;28;19926;-80
2022/08/07 02:28:35;;;;;;;;;;;13.20;82.40;;;;;;5092249;28;19916;-80
2022/08/07 02:31:04;;;;;;;;;;;13.10;83.30;;;;;;5075460;28;19916;-82
2022/08/07 02:33:32;;;;;;;;;;;13.00;83.50;;;;;;5087641;28;19915;-80
2022/08/07 02:35:59;;;;;;;;;;;13.10;84.40;;;;;;5075969;28;19912;-80
2022/08/07 02:38:32;;;;;;;;;;;13.10;83.80;;;;;;5079022;28;19923;-80
2022/08/07 02:41:00;;;;;;;;;;;13.10;84.20;;;;;;5094926;28;19922;-80
2022/08/07 02:43:27;;;;;;;;;;;13.10;83.90;;;;;;5086442;28;19918;-80
2022/08/07 02:45:55;;;;;;;;;;;13.10;83.90;;;;;;5094557;28;19911;-80
2022/08/07 02:48:24;;;;;;;;;;;13.10;84.50;;;;;;5094594;28;19919;-79
2022/08/07 02:50:53;;;;;;;;;;;13.10;84.70;;;;;;5109944;28;19918;-80
2022/08/07 02:53:30;;;;;;;;;;;13.10;84.80;;;;;;5074575;28;19987;-79
2022/08/07 02:55:58;;;;;;;;;;;13.00;85.30;;;;;;5111242;28;19919;-80
2022/08/07 02:58:24;;;;;;;;;;;13.00;85.70;;;;;;5109636;28;20293;-79
2022/08/07 03:00:51;;;;;;;;;;;13.00;85.50;;;;;;5092762;28;20402;-80
2022/08/07 03:03:19;;;;;;;;;;;13.00;85.40;;;;;;5075080;28;20017;-79
2022/08/07 03:05:48;;;;;;;;;;;13.00;85.60;;;;;;5092188;28;19912;-80
2022/08/07 03:08:15;;;;;;;;;;;13.10;85.50;;;;;;5092985;28;19920;-80
2022/08/07 03:10:45;;;;;;;;;;;13.10;85.30;;;;;;5092842;28;20384;-80
2022/08/07 03:13:13;;;;;;;;;;;13.00;85.30;;;;;;5075701;28;19919;-79
2022/08/07 03:15:40;;;;;;;;;;;13.00;85.40;;;;;;5090386;28;19916;-81
2022/08/07 03:18:06;;;;;;;;;;;13.10;85.20;;;;;;5091431;28;19912;-79
2022/08/07 03:20:33;;;;;;;;;;;13.10;85.00;;;;;;5108744;28;19912;-81
2022/08/07 03:23:00;;;;;;;;;;;13.20;84.80;;;;;;5087447;28;19927;-81
2022/08/07 03:25:28;;;;;;;;;;;13.20;84.80;;;;;;5094383;28;19920;-81
2022/08/07 03:27:58;;;;;;;;;;;13.20;84.80;;;;;;5094204;28;19916;-81
2022/08/07 03:30:24;;;;;;;;;;;13.20;85.10;;;;;;5093569;28;19927;-83
2022/08/07 03:32:53;;;;;;;;;;;13.10;85.40;;;;;;5093223;28;19916;-81
2022/08/07 03:35:21;;;;;;;;;;;13.10;85.30;;;;;;5092832;28;19923;-81
2022/08/07 03:37:52;;;;;;;;;;;13.10;85.30;;;;;;5111665;28;19919;-80
2022/08/07 03:40:19;;;;;;;;;;;13.10;85.20;;;;;;5077862;28;19930;-81
2022/08/07 03:42:45;;;;;;;;;;;13.10;85.40;;;;;;5108123;28;19919;-81
2022/08/07 03:45:14;;;;;;;;;;;13.00;85.90;;;;;;5093307;28;19919;-81
2022/08/07 03:47:40;;;;;;;;;;;12.90;86.60;;;;;;5094107;28;19920;-83
2022/08/07 03:50:06;;;;;;;;;;;12.90;86.80;;;;;;5087137;28;19916;-81
2022/08/07 03:52:37;;;;;;;;;;;12.90;87.30;;;;;;5094140;28;20365;-81
2022/08/07 03:55:06;;;;;;;;;;;12.80;87.50;;;;;;5091990;28;20373;-81
2022/08/07 03:57:33;;;;;;;;;;;12.80;87.70;;;;;;5077332;28;19915;-81
2022/08/07 03:59:59;;;;;;;;;;;12.70;88.00;;;;;;5093826;28;20276;-80
2022/08/07 04:02:26;;;;;;;;;;;12.70;88.20;;;;;;5085548;28;19912;-80
2022/08/07 04:04:53;;;;;;;;;;;12.70;88.30;;;;;;5105038;28;20391;-81
2022/08/07 04:07:19;;;;;;;;;;;12.70;88.50;;;;;;5076566;28;19919;-81
2022/08/07 04:09:48;;;;;;;;;;;12.70;88.70;;;;;;5086827;28;20262;-81
2022/08/07 04:12:15;;;;;;;;;;;12.70;88.80;;;;;;5077028;28;19912;-81
2022/08/07 04:14:42;;;;;;;;;;;12.70;89.00;;;;;;5089803;28;20269;-84
2022/08/07 04:17:08;;;;;;;;;;;12.70;89.00;;;;;;5076885;28;19912;-81
2022/08/07 04:19:35;;;;;;;;;;;12.70;88.90;;;;;;5093890;28;19911;-81
2022/08/07 04:22:01;;;;;;;;;;;12.80;88.70;;;;;;5085502;28;19911;-82
2022/08/07 04:24:31;;;;;;;;;;;12.80;88.20;;;;;;5083995;28;19920;-81
2022/08/07 04:27:01;;;;;;;;;;;12.90;88.10;;;;;;5080843;28;19920;-81
2022/08/07 04:29:28;;;;;;;;;;;12.90;88.00;;;;;;5086709;28;19923;-80
2022/08/07 04:31:57;;;;;;;;;;;13.00;87.50;;;;;;5093338;28;19916;-81
2022/08/07 04:34:23;;;;;;;;;;;13.00;87.20;;;;;;5090028;28;19912;-81
2022/08/07 04:36:49;;;;;;;;;;;13.00;87.30;;;;;;5089011;28;19912;-81
2022/08/07 04:39:16;;;;;;;;;;;13.00;87.50;;;;;;5092872;28;19923;-81
2022/08/07 04:41:42;;;;;;;;;;;13.10;86.30;;;;;;5109310;28;19916;-84
2022/08/07 04:44:08;;;;;;;;;;;13.20;86.20;;;;;;5114347;28;20292;-80
2022/08/07 04:46:42;;;;;;;;;;;13.10;85.90;;;;;;5098030;28;19919;-83
2022/08/07 04:49:29;;;;;;;;;;;13.20;85.90;;;;;;5098086;28;19916;-81
2022/08/07 04:52:01;;;;;;;;;;;13.30;85.00;;;;;;5097139;28;19923;-82
2022/08/07 04:54:27;;;;;;;;;;;14.00;82.90;;;;;;5092352;28;19912;-81
2022/08/07 04:56:56;;;;;;;;;;;14.90;77.90;;;;;;5093381;28;19920;-81
2022/08/07 04:59:29;;;;;;;;;;;15.50;74.10;;;;;;5080483;28;20369;-81
2022/08/07 05:02:09;;;;;;;;;;;15.90;71.70;;;;;;5112049;28;19919;-78
2022/08/07 05:04:41;;;;;;;;;;;16.10;69.70;;;;;;5109954;28;19934;-78
2022/08/07 05:07:12;;;;;;;;;;;16.50;67.80;;;;;;5085823;28;19912;-81
2022/08/07 05:09:44;;;;;;;;;;;16.50;66.90;;;;;;5096987;28;20372;-80
2022/08/07 05:12:13;;;;;;;;;;;16.70;66.20;;;;;;5110552;28;19916;-87
2022/08/07 05:14:41;;;;;;;;;;;16.90;64.90;;;;;;5117410;28;19912;-87
2022/08/07 05:17:10;;;;;;;;;;;16.90;64.70;;;;;;5097605;28;19912;-84
2022/08/07 05:19:39;;;;;;;;;;;17.10;63.90;;;;;;5098598;28;19919;-85
2022/08/07 05:22:07;;;;;;;;;;;17.20;63.80;;;;;;5116819;28;20288;-85
2022/08/07 05:24:37;;;;;;;;;;;17.30;62.50;;;;;;5093039;28;19912;-85
2022/08/07 05:27:04;;;;;;;;;;;17.60;62.30;;;;;;5105073;28;19916;-86
2022/08/07 05:29:31;;;;;;;;;;;17.70;61.50;;;;;;5102737;28;19916;-85
2022/08/07 05:31:58;;;;;;;;;;;18.00;60.50;;;;;;5122874;28;19915;-84
2022/08/07 05:34:29;;;;;;;;;;;18.30;60.20;;;;;;5106498;28;19919;-83
2022/08/07 05:36:55;;;;;;;;;;;18.10;60.40;;;;;;5097584;28;19912;-83
2022/08/07 05:39:36;;;;;;;;;;;18.20;59.70;;;;;;5101082;28;19926;-85
2022/08/07 05:42:04;;;;;;;;;;;18.30;59.50;;;;;;5093596;28;19900;-84
2022/08/07 05:44:35;;;;;;;;;;;18.90;58.50;;;;;;5118701;28;19912;-87
2022/08/07 05:47:03;;;;;;;;;;;19.20;57.80;;;;;;5112024;28;19927;-86
2022/08/07 05:49:29;;;;;;;;;;;19.10;57.80;;;;;;5101268;28;19923;-86
2022/08/07 05:51:55;;;;;;;;;;;19.00;58.20;;;;;;5114984;28;19915;-83
2022/08/07 05:54:23;;;;;;;;;;;19.00;57.90;;;;;;5106864;28;19923;-86
2022/08/07 05:56:50;;;;;;;;;;;19.20;57.80;;;;;;5113359;28;19941;-87
2022/08/07 05:59:17;;;;;;;;;;;19.30;56.80;;;;;;5117605;28;19900;-85
2022/08/07 06:01:45;;;;;;;;;;;19.30;57.10;;;;;;5101053;28;19978;-84
2022/08/07 06:04:13;;;;;;;;;;;19.20;56.60;;;;;;5102766;28;19934;-87
2022/08/07 06:06:40;;;;;;;;;;;19.20;56.80;;;;;;5114781;28;19916;-87
2022/08/07 06:09:08;;;;;;;;;;;19.20;56.40;;;;;;5116250;28;19926;-87
2022/08/07 06:11:38;;;;;;;;;;;19.60;56.10;;;;;;5119421;28;19919;-86
2022/08/07 06:14:04;;;;;;;;;;;20.40;54.80;;;;;;5097580;28;20070;-76
2022/08/07 06:16:32;;;;;;;;;;;20.50;54.00;;;;;;5093195;28;19919;-77
2022/08/07 06:19:01;;;;;;;;;;;20.70;54.30;;;;;;5095506;28;19912;-77
2022/08/07 06:21:27;;;;;;;;;;;21.10;53.20;;;;;;5094773;28;19918;-77
2022/08/07 06:23:53;;;;;;;;;;;20.80;52.70;;;;;;5093271;28;19919;-78
2022/08/07 06:26:20;;;;;;;;;;;20.60;53.00;;;;;;5108130;28;19954;-77
2022/08/07 06:28:47;;;;;;;;;;;20.40;53.20;;;;;;5093010;28;20364;-76
2022/08/07 06:31:13;;;;;;;;;;;20.20;53.50;;;;;;5108289;28;19920;-77
2022/08/07 06:33:39;;;;;;;;;;;20.50;53.40;;;;;;5114331;28;19908;-76
2022/08/07 06:36:05;;;;;;;;;;;20.60;52.90;;;;;;5109495;28;19912;-77
2022/08/07 06:38:31;;;;;;;;;;;20.70;52.70;;;;;;5094910;28;19911;-76
2022/08/07 06:40:59;;;;;;;;;;;20.80;52.40;;;;;;5093977;28;20396;-77
2022/08/07 06:43:25;;;;;;;;;;;21.40;51.90;;;;;;5114086;28;19934;-77
2022/08/07 06:46:14;;;;;;;;;;;21.50;51.90;;;;;;5098222;28;20151;-79
2022/08/07 06:48:41;;;;;;;;;;;22.30;50.60;;;;;;5093313;28;20111;-77
2022/08/07 06:51:09;;;;;;;;;;;21.90;50.40;;;;;;5092471;28;19924;-77
2022/08/07 06:53:38;;;;;;;;;;;21.80;50.80;;;;;;5093980;28;19919;-74
2022/08/07 06:56:06;;;;;;;;;;;22.10;50.20;;;;;;5112306;28;19912;-77
2022/08/07 06:58:35;;;;;;;;;;;22.40;49.20;;;;;;5090941;28;19920;-75
2022/08/07 07:01:07;;;;;;;;;;;21.90;50.20;;;;;;5078326;28;19919;-74
2022/08/07 07:03:36;;;;;;;;;;;21.90;49.30;;;;;;5109218;28;20001;-75
2022/08/07 07:06:02;;;;;;;;;;;22.00;49.80;;;;;;5092803;28;20265;-75
2022/08/07 07:08:29;;;;;;;;;;;22.40;49.30;;;;;;5106182;28;19915;-76
2022/08/07 07:10:55;;;;;;;;;;;22.30;49.20;;;;;;5107937;28;19916;-76
2022/08/07 07:13:25;;;;;;;;;;;22.80;48.90;;;;;;5107317;28;19911;-76
2022/08/07 07:15:55;;;;;;;;;;;22.90;48.30;;;;;;5109482;28;19923;-77
2022/08/07 07:18:24;;;;;;;;;;;23.10;48.20;;;;;;5094390;28;19919;-75
2022/08/07 07:21:02;;;;;;;;;;;23.80;47.40;;;;;;5109337;28;19919;-75
2022/08/07 07:23:32;;;;;;;;;;;24.30;47.10;;;;;;5103956;28;20363;-75
2022/08/07 07:25:59;;;;;;;;;;;24.10;46.00;;;;;;5111020;28;19995;-75
2022/08/07 07:28:28;;;;;;;;;;;23.50;47.10;;;;;;5111261;28;19919;-75
2022/08/07 07:30:56;;;;;;;;;;;23.10;48.20;;;;;;5106277;28;20391;-75
2022/08/07 07:33:22;;;;;;;;;;;23.20;47.90;;;;;;5106234;28;19912;-75
2022/08/07 07:35:50;;;;;;;;;;;23.40;48.10;;;;;;5106693;28;19912;-76
2022/08/07 07:38:20;;;;;;;;;;;22.90;49.10;;;;;;5106928;28;19923;-75
2022/08/07 07:40:47;;;;;;;;;;;23.40;48.00;;;;;;5111776;28;19918;-76
2022/08/07 07:43:14;;;;;;;;;;;23.90;47.40;;;;;;5110494;28;19916;-75
2022/08/07 07:45:42;;;;;;;;;;;24.50;48.00;;;;;;5107697;28;19919;-75
2022/08/07 07:48:09;;;;;;;;;;;24.50;46.30;;;;;;5107039;28;19916;-78
2022/08/07 07:50:36;;;;;;;;;;;24.00;47.20;;;;;;5095163;28;19926;-77
2022/08/07 07:53:02;;;;;;;;;;;23.60;48.00;;;;;;5105777;28;20319;-77
2022/08/07 07:55:29;;;;;;;;;;;24.60;46.40;;;;;;5112530;28;20387;-75
2022/08/07 07:57:55;;;;;;;;;;;23.60;47.60;;;;;;5104498;28;19918;-76
2022/08/07 08:00:22;;;;;;;;;;;23.30;47.80;;;;;;5109130;28;19912;-75
2022/08/07 08:02:49;;;;;;;;;;;23.30;48.70;;;;;;5107012;28;19911;-76
2022/08/07 08:05:16;;;;;;;;;;;23.70;47.70;;;;;;5093345;28;19912;-75
2022/08/07 08:07:43;;;;;;;;;;;23.50;47.90;;;;;;5111419;28;19927;-75
2022/08/07 08:10:09;;;;;;;;;;;24.20;47.00;;;;;;5105817;28;19915;-75
2022/08/07 08:12:35;;;;;;;;;;;24.20;47.20;;;;;;5107157;28;19915;-75
2022/08/07 08:15:02;;;;;;;;;;;24.20;47.50;;;;;;5104467;28;20391;-75
2022/08/07 08:17:29;;;;;;;;;;;24.60;47.00;;;;;;5107913;28;20003;-75
2022/08/07 08:19:59;;;;;;;;;;;24.00;47.10;;;;;;5108664;28;19913;-75
2022/08/07 08:27:56;;;;;;;;;;;24.10;48.10;;;;;;5102658;28;20392;-75
2022/08/07 08:30:23;;;;;;;;;;;23.90;48.70;;;;;;5091631;28;19919;-75
2022/08/07 08:32:52;;;;;;;;;;;24.00;48.40;;;;;;5111657;28;19912;-75
2022/08/07 08:35:20;;;;;;;;;;;24.30;47.40;;;;;;5107729;28;20249;-76
2022/08/07 08:37:47;;;;;;;;;;;24.40;47.70;;;;;;5103415;28;19923;-77
2022/08/07 08:40:17;;;;;;;;;;;24.60;47.40;;;;;;5109589;28;20276;-75
2022/08/07 08:42:51;;;;;;;;;;;23.80;48.20;;;;;;5111714;28;19918;-75
2022/08/07 08:45:20;;;;;;;;;;;23.50;49.20;;;;;;5107551;28;19934;-75
2022/08/07 08:47:55;;;;;;;;;;;23.80;49.00;;;;;;5102328;28;20361;-75
2022/08/07 08:50:21;;;;;;;;;;;24.00;48.60;;;;;;5106517;28;19927;-75
2022/08/07 08:53:18;;;;;;;;;;;24.10;49.40;;;;;;5111052;28;19955;-75
2022/08/07 08:55:55;;;;;;;;;;;24.60;48.50;;;;;;5054571;28;19913;-76
2022/08/07 08:58:40;;;;;;;;;;;24.60;48.30;;;;;;5104525;28;19912;-75
2022/08/07 09:01:15;;;;;;;;;;;24.70;48.00;;;;;;5106492;28;20292;-76
2022/08/07 09:03:44;;;;;;;;;;;24.60;48.80;;;;;;5112178;28;19912;-75
2022/08/07 09:06:15;;;;;;;;;;;24.60;48.40;;;;;;5109851;28;19916;-74
2022/08/07 09:09:06;;;;;;;;;;;24.40;48.20;;;;;;5106601;28;20300;-75
2022/08/07 09:11:48;;;;;;;;;;;24.10;48.20;;;;;;5101660;28;19934;-75
2022/08/07 09:14:16;;;;;;;;;;;24.60;48.40;;;;;;5105950;28;19912;-75
2022/08/07 09:16:46;;;;;;;;;;;24.60;48.70;;;;;;5110197;28;19916;-75
2022/08/07 09:19:24;;;;;;;;;;;24.80;48.90;;;;;;5105786;28;19911;-75
2022/08/07 09:22:06;;;;;;;;;;;24.80;48.00;;;;;;5109869;28;19912;-75
2022/08/07 09:24:49;;;;;;;;;;;25.00;48.10;;;;;;5111051;28;19991;-74
2022/08/07 09:27:28;;;;;;;;;;;24.60;48.80;;;;;;5110055;28;20372;-75
2022/08/07 09:29:54;;;;;;;;;;;24.90;48.60;;;;;;5095351;28;19922;-75
2022/08/07 09:32:27;;;;;;;;;;;25.10;47.90;;;;;;5110460;28;20018;-75
2022/08/07 09:35:11;;;;;;;;;;;25.30;47.80;;;;;;5109970;28;19948;-75
2022/08/07 09:37:40;;;;;;;;;;;25.60;47.70;;;;;;5109769;28;20511;-76
2022/08/07 09:40:09;;;;;;;;;;;25.40;47.50;;;;;;5109254;28;20556;-75
2022/08/07 09:42:48;;;;;;;;;;;25.50;47.60;;;;;;5110170;28;19973;-75
2022/08/07 09:45:33;;;;;;;;;;;24.80;48.60;;;;;;5113847;28;19912;-75
2022/08/07 09:48:08;;;;;;;;;;;25.20;48.10;;;;;;5108315;28;19912;-75
2022/08/07 09:50:50;;;;;;;;;;;25.80;47.30;;;;;;5112675;28;19920;-75
2022/08/07 09:53:18;;;;;;;;;;;26.20;47.60;;;;;;5114130;28;19912;-74
2022/08/07 09:55:44;;;;;;;;;;;26.60;46.50;;;;;;5111994;28;19911;-75
2022/08/07 09:58:27;;;;;;;;;;;25.80;47.00;;;;;;5108286;28;20030;-75
2022/08/07 10:01:20;;;;;;;;;;;26.20;47.00;;;;;;5105708;28;20265;-75
2022/08/07 10:04:13;;;;;;;;;;;26.60;46.50;;;;;;5106951;28;19912;-74
2022/08/07 10:06:42;;;;;;;;;;;27.40;46.00;;;;;;5105172;28;19931;-76
2022/08/07 10:09:26;;;;;;;;;;;26.50;45.70;;;;;;5108677;28;19919;-76
2022/08/07 10:12:05;;;;;;;;;;;25.60;46.20;;;;;;5106959;28;20474;-76
2022/08/07 10:14:37;;;;;;;;;;;25.30;46.20;;;;;;5106624;28;19931;-75
2022/08/07 10:17:15;;;;;;;;;;;24.90;46.80;;;;;;5088546;28;19916;-74
2022/08/07 10:20:02;;;;;;;;;;;24.90;46.30;;;;;;5124426;28;19919;-77
2022/08/07 10:22:37;;;;;;;;;;;24.80;46.30;;;;;;5097596;28;19916;-76
2022/08/07 10:25:09;;;;;;;;;;;25.10;46.10;;;;;;5107398;28;19916;-77
2022/08/07 10:27:38;;;;;;;;;;;25.70;45.40;;;;;;5106690;28;19919;-76
2022/08/07 10:30:08;;;;;;;;;;;25.60;45.60;;;;;;5109478;28;19915;-76
2022/08/07 10:32:34;;;;;;;;;;;25.50;44.90;;;;;;5108340;28;19916;-76
2022/08/07 10:35:11;;;;;;;;;;;25.50;42.60;;;;;;5112113;28;19988;-75
2022/08/07 10:37:55;;;;;;;;;;;25.50;42.80;;;;;;5108987;28;19923;-75
2022/08/07 10:40:26;;;;;;;;;;;25.80;41.90;;;;;;5110947;28;20253;-75
2022/08/07 10:42:52;;;;;;;;;;;25.60;42.60;;;;;;5113813;28;19923;-74
2022/08/07 10:45:37;;;;;;;;;;;26.00;42.10;;;;;;5107849;28;19919;-74
2022/08/07 10:48:03;;;;;;;;;;;25.90;41.90;;;;;;5111717;28;19919;-75
2022/08/07 10:50:32;;;;;;;;;;;25.50;42.00;;;;;;5113359;28;19916;-74
2022/08/07 10:53:17;;;;;;;;;;;25.30;42.20;;;;;;5113634;28;19922;-74
2022/08/07 10:55:46;;;;;;;;;;;25.50;42.70;;;;;;5105968;28;19916;-76
2022/08/07 10:58:43;;;;;;;;;;;25.50;42.30;;;;;;5100633;28;19922;-75
2022/08/07 11:01:31;;;;;;;;;;;25.80;42.00;;;;;;5110818;28;19919;-75
2022/08/07 11:04:04;;;;;;;;;;;25.80;41.50;;;;;;5090025;28;19934;-79
2022/08/07 11:06:39;;;;;;;;;;;25.90;41.20;;;;;;5105886;28;19916;-79
2022/08/07 11:09:09;;;;;;;;;;;26.20;41.20;;;;;;5100236;28;19923;-75
2022/08/07 11:11:43;;;;;;;;;;;26.30;41.20;;;;;;5105909;28;19922;-77
2022/08/07 11:14:14;;;;;;;;;;;25.80;41.00;;;;;;5107143;28;19912;-76
2022/08/07 11:16:40;;;;;;;;;;;25.70;41.60;;;;;;5094166;28;19918;-76
2022/08/07 11:19:10;;;;;;;;;;;25.50;41.60;;;;;;5110577;28;20412;-76
2022/08/07 11:21:41;;;;;;;;;;;25.70;42.30;;;;;;5105473;28;19911;-75
2022/08/07 11:24:30;;;;;;;;;;;26.00;41.20;;;;;;5108108;28;19919;-76
2022/08/07 11:27:02;;;;;;;;;;;26.20;41.00;;;;;;5079310;28;19927;-75
2022/08/07 11:29:35;;;;;;;;;;;26.30;41.00;;;;;;5087206;28;19923;-75
2022/08/07 11:32:11;;;;;;;;;;;26.50;40.30;;;;;;5092156;28;19922;-75
2022/08/07 11:34:40;;;;;;;;;;;26.10;40.60;;;;;;5086257;28;19912;-75
2022/08/07 11:37:13;;;;;;;;;;;26.20;40.60;;;;;;5090711;28;19916;-72
2022/08/07 11:39:57;;;;;;;;;;;26.60;40.50;;;;;;5082104;28;19913;-74
2022/08/07 11:42:30;;;;;;;;;;;26.40;40.10;;;;;;5083091;28;20352;-74
2022/08/07 11:45:08;;;;;;;;;;;26.40;40.00;;;;;;5086198;28;19916;-75
2022/08/07 11:47:46;;;;;;;;;;;26.40;39.90;;;;;;5090681;28;20281;-74
2022/08/07 11:50:18;;;;;;;;;;;26.30;40.00;;;;;;5088451;28;19924;-74
2022/08/07 11:52:48;;;;;;;;;;;26.50;38.90;;;;;;5089426;28;19923;-75
2022/08/07 11:55:34;;;;;;;;;;;26.80;40.40;;;;;;5086359;28;20387;-74
2022/08/07 11:58:00;;;;;;;;;;;26.50;38.70;;;;;;5080830;28;20361;-75
2022/08/07 12:00:45;;;;;;;;;;;26.20;39.30;;;;;;5087262;28;19919;-75
2022/08/07 12:03:23;;;;;;;;;;;26.10;39.70;;;;;;5091498;28;19912;-74
2022/08/07 12:05:57;;;;;;;;;;;26.20;39.40;;;;;;5086814;28;19912;-79
2022/08/07 12:08:29;;;;;;;;;;;26.40;39.20;;;;;;5089411;28;19919;-75
2022/08/07 12:10:57;;;;;;;;;;;26.30;39.20;;;;;;5091481;28;19926;-75
2022/08/07 12:13:23;;;;;;;;;;;26.50;39.40;;;;;;5091877;28;19923;-75
2022/08/07 12:15:55;;;;;;;;;;;26.60;38.70;;;;;;5091132;28;19912;-74
2022/08/07 12:18:25;;;;;;;;;;;26.60;38.60;;;;;;5083635;28;19961;-75
2022/08/07 12:20:54;;;;;;;;;;;26.70;38.70;;;;;;5091567;28;19912;-76
2022/08/07 12:23:32;;;;;;;;;;;26.80;38.50;;;;;;5091231;28;19912;-76
2022/08/07 12:26:00;;;;;;;;;;;26.70;39.00;;;;;;5087474;28;19920;-79
2022/08/07 12:28:40;;;;;;;;;;;26.60;38.50;;;;;;5085237;28;19912;-76
2022/08/07 12:31:12;;;;;;;;;;;26.40;38.50;;;;;;5086832;28;19927;-75
2022/08/07 12:33:39;;;;;;;;;;;26.40;38.20;;;;;;5086771;28;19913;-74
2022/08/07 12:36:06;;;;;;;;;;;26.40;38.30;;;;;;5090013;28;20309;-76
2022/08/07 12:38:32;;;;;;;;;;;26.40;38.40;;;;;;5088694;28;19923;-76
2022/08/07 12:40:59;;;;;;;;;;;26.70;38.10;;;;;;5086347;28;19912;-77
2022/08/07 12:43:28;;;;;;;;;;;27.20;38.00;;;;;;5091907;28;19920;-75
2022/08/07 12:46:03;;;;;;;;;;;26.90;37.70;;;;;;5089707;28;20357;-76
2022/08/07 12:48:48;;;;;;;;;;;26.90;37.80;;;;;;5087358;28;20365;-76
2022/08/07 12:51:17;;;;;;;;;;;26.60;37.70;;;;;;5086711;28;19927;-77
2022/08/07 12:53:49;;;;;;;;;;;26.90;38.70;;;;;;5087819;28;19916;-75
2022/08/07 12:56:18;;;;;;;;;;;27.20;37.80;;;;;;5089149;28;19923;-74
2022/08/07 12:58:46;;;;;;;;;;;27.20;37.60;;;;;;5084318;28;19912;-75
2022/08/07 13:01:12;;;;;;;;;;;27.00;37.40;;;;;;5087753;28;19916;-75
2022/08/07 13:03:56;;;;;;;;;;;26.90;37.50;;;;;;5086281;28;19912;-76
2022/08/07 13:06:37;;;;;;;;;;;26.80;37.60;;;;;;5097501;28;20369;-75
2022/08/07 13:09:08;;;;;;;;;;;26.90;37.20;;;;;;5094322;28;19916;-74
2022/08/07 13:11:37;;;;;;;;;;;27.00;38.50;;;;;;5099635;28;19923;-75
2022/08/07 13:14:06;;;;;;;;;;;27.00;37.40;;;;;;5092766;28;19920;-75
2022/08/07 13:16:38;;;;;;;;;;;27.10;37.40;;;;;;5089379;28;19919;-77
2022/08/07 13:19:07;;;;;;;;;;;27.30;39.10;;;;;;5090567;28;20295;-74
2022/08/07 13:21:41;;;;;;;;;;;27.80;38.00;;;;;;5091064;28;19920;-75
2022/08/07 13:24:09;;;;;;;;;;;27.80;36.90;;;;;;5088963;28;19912;-74
2022/08/07 13:26:44;;;;;;;;;;;27.80;37.30;;;;;;5101302;28;19920;-75
2022/08/07 13:29:11;;;;;;;;;;;27.20;37.60;;;;;;5113707;28;20090;-75
2022/08/07 13:31:51;;;;;;;;;;;27.00;37.30;;;;;;5115415;28;19923;-74
2022/08/07 13:34:22;;;;;;;;;;;26.50;37.50;;;;;;5096423;28;19911;-74
2022/08/07 13:36:55;;;;;;;;;;;26.90;38.00;;;;;;5113858;28;19916;-75
2022/08/07 13:39:26;;;;;;;;;;;27.30;36.70;;;;;;5113676;28;20364;-76
2022/08/07 13:41:53;;;;;;;;;;;27.10;37.00;;;;;;5115099;28;19916;-77
2022/08/07 13:44:25;;;;;;;;;;;27.10;37.30;;;;;;5110381;28;19913;-76
2022/08/07 13:46:55;;;;;;;;;;;27.50;38.20;;;;;;5108972;28;19912;-80
2022/08/07 13:49:22;;;;;;;;;;;27.90;37.60;;;;;;5108965;28;20364;-76
2022/08/07 13:51:49;;;;;;;;;;;28.10;37.00;;;;;;5111501;28;19916;-76
2022/08/07 13:54:16;;;;;;;;;;;28.20;36.70;;;;;;5108439;28;20287;-75
2022/08/07 13:56:44;;;;;;;;;;;27.80;36.90;;;;;;5113491;28;19915;-76
2022/08/07 13:59:12;;;;;;;;;;;27.80;36.20;;;;;;5113597;28;19912;-76
2022/08/07 14:01:50;;;;;;;;;;;27.20;36.60;;;;;;5114426;28;19912;-79
2022/08/07 14:04:17;;;;;;;;;;;27.30;36.60;;;;;;5109654;28;19911;-76
2022/08/07 14:06:44;;;;;;;;;;;27.60;36.50;;;;;;5113662;28;19970;-75
2022/08/07 14:09:19;;;;;;;;;;;27.60;36.60;;;;;;5109387;28;19920;-76
2022/08/07 14:11:48;;;;;;;;;;;27.60;36.90;;;;;;5108634;28;19923;-76
2022/08/07 14:14:15;;;;;;;;;;;27.70;37.20;;;;;;5109951;28;19912;-76
2022/08/07 14:16:44;;;;;;;;;;;27.70;37.10;;;;;;5093539;28;20321;-76
2022/08/07 14:19:14;;;;;;;;;;;27.70;36.80;;;;;;5114779;28;19912;-74
2022/08/07 14:21:45;;;;;;;;;;;27.70;37.10;;;;;;5113057;28;19919;-75
2022/08/07 14:24:34;;;;;;;;;;;27.70;37.40;;;;;;5092365;28;19931;-76
2022/08/07 14:27:05;;;;;;;;;;;27.60;36.80;;;;;;5101567;28;19934;-76
2022/08/07 14:29:34;;;;;;;;;;;27.40;37.10;;;;;;5109492;28;19916;-75
2022/08/07 14:32:04;;;;;;;;;;;27.50;36.70;;;;;;5110302;28;19923;-76
2022/08/07 14:34:31;;;;;;;;;;;27.60;37.00;;;;;;5109268;28;19911;-76
2022/08/07 14:37:01;;;;;;;;;;;27.50;36.70;;;;;;5092108;28;20373;-75
2022/08/07 14:39:28;;;;;;;;;;;27.80;36.60;;;;;;5112558;28;19919;-75